createdAt,value
2022-10-21T09:18:20.018Z,2264.00
2022-10-21T09:19:19.852Z,2308.00
2022-10-21T09:20:19.775Z,2288.00
2022-10-21T09:21:19.701Z,2216.00
2022-10-21T09:22:35.961Z,2380.00
2022-10-21T09:23:19.599Z,2368.00
2022-10-21T09:24:19.472Z,1796.00
2022-10-21T09:25:19.496Z,1756.00
2022-10-21T09:26:19.322Z,1800.00
2022-10-21T09:27:26.888Z,1276.00
2022-10-21T09:28:19.168Z,1424.00
2022-10-21T09:29:19.095Z,1212.00
2022-10-21T09:30:19.017Z,1292.00
2022-10-21T09:31:18.941Z,1220.00
2022-10-21T09:32:19.102Z,1776.00
2022-10-21T09:33:18.789Z,1972.00
2022-10-21T09:34:18.733Z,2272.00
2022-10-21T09:35:18.637Z,2300.00
2022-10-21T09:36:18.562Z,2248.00
2022-10-21T09:37:18.494Z,2348.00
2022-10-21T09:38:18.414Z,2420.00
2022-10-21T09:39:18.334Z,2464.00
2022-10-21T09:40:18.257Z,2760.00
2022-10-21T09:41:18.204Z,2848.00
2022-10-21T09:42:42.331Z,2976.00
2022-10-21T09:43:18.035Z,2716.00
2022-10-21T09:44:17.955Z,2812.00
2022-10-21T09:45:17.881Z,2592.00
2022-10-21T09:46:17.802Z,2744.00
2022-10-21T09:47:17.727Z,2800.00
2022-10-21T09:48:17.651Z,2036.00
2022-10-21T09:49:47.636Z,2248.00
2022-10-21T09:50:17.886Z,1896.00
2022-10-21T09:51:17.424Z,1672.00
2022-10-21T09:52:17.346Z,1668.00
2022-10-21T09:53:18.254Z,2008.00
2022-10-21T09:54:17.195Z,2004.00
2022-10-21T09:55:17.119Z,2348.00
2022-10-21T09:56:17.046Z,2464.00
2022-10-21T09:57:16.967Z,2668.00
2022-10-21T09:58:16.894Z,2976.00
2022-10-21T09:59:16.817Z,3208.00
2022-10-21T10:00:16.794Z,2916.00
2022-10-21T10:01:16.667Z,2864.00
2022-10-21T10:02:16.696Z,3044.00
2022-10-21T10:03:16.511Z,2872.00
2022-10-21T10:04:16.439Z,2660.00
2022-10-21T10:05:16.362Z,2800.00
2022-10-21T10:06:16.305Z,3100.00
2022-10-21T10:07:16.209Z,3008.00
2022-10-21T10:08:16.138Z,2872.00
2022-10-21T10:09:16.060Z,2504.00
2022-10-21T10:10:15.986Z,2304.00
2022-10-21T10:11:15.912Z,2100.00
2022-10-21T10:12:15.833Z,2000.00
2022-10-21T10:13:15.760Z,2028.00
2022-10-21T10:14:15.682Z,2088.00
2022-10-21T10:15:15.605Z,1552.00
2022-10-21T10:16:15.533Z,1356.00
2022-10-21T10:17:15.453Z,1396.00
2022-10-21T10:18:15.379Z,1140.00
2022-10-21T10:19:15.309Z,1000.00
2022-10-21T10:20:15.240Z,1028.00
2022-10-21T10:21:15.150Z,896.00
2022-10-21T10:22:15.095Z,1024.00
2022-10-21T10:23:15.001Z,824.00
2022-10-21T10:24:15.026Z,852.00
2022-10-21T10:25:14.848Z,900.00
2022-10-21T10:26:14.775Z,804.00
2022-10-21T10:27:14.701Z,740.00
2022-10-21T10:28:14.623Z,736.00
2022-10-21T10:29:14.547Z,780.00
2022-10-21T10:30:14.473Z,748.00
2022-10-21T10:31:14.402Z,780.00
2022-10-21T10:32:14.321Z,708.00
2022-10-21T10:33:14.243Z,664.00
2022-10-21T10:34:14.170Z,720.00
2022-10-21T10:35:14.091Z,1064.00
2022-10-21T10:36:14.015Z,1116.00
2022-10-21T10:37:13.958Z,972.00
2022-10-21T10:38:13.975Z,892.00
2022-10-21T10:39:13.787Z,1064.00
2022-10-21T10:40:13.715Z,1492.00
2022-10-21T10:41:13.636Z,1068.00
2022-10-21T10:42:13.563Z,808.00
2022-10-21T10:43:13.482Z,584.00
2022-10-21T10:44:13.416Z,440.00
2022-10-21T10:45:13.344Z,224.00
2022-10-21T10:46:13.255Z,228.00
2022-10-21T10:47:13.178Z,552.00
2022-10-21T10:48:13.105Z,748.00
2022-10-21T10:49:13.023Z,908.00
2022-10-21T10:50:13.147Z,1384.00
2022-10-21T10:51:12.871Z,2072.00
2022-10-21T10:52:12.794Z,2640.00
2022-10-21T10:53:12.716Z,2356.00
2022-10-21T10:54:12.749Z,2016.00
2022-10-21T10:55:12.564Z,2068.00
2022-10-21T10:56:12.493Z,2228.00
2022-10-21T10:57:12.409Z,2560.00
2022-10-21T10:58:15.326Z,3072.00
2022-10-21T10:59:12.254Z,3724.00
2022-10-21T11:00:12.215Z,4124.00
2022-10-21T11:01:12.170Z,4192.00
2022-10-21T11:02:12.029Z,4332.00
2022-10-21T11:03:11.946Z,4584.00
2022-10-21T11:04:11.870Z,4912.00
2022-10-21T11:05:11.794Z,5540.00
2022-10-21T11:06:11.719Z,5900.00
2022-10-21T11:07:11.642Z,6084.00
2022-10-21T11:08:11.563Z,5616.00
2022-10-21T11:09:11.597Z,6460.00
2022-10-21T11:10:11.642Z,6472.00
2022-10-21T11:11:11.334Z,6508.00
2022-10-21T11:12:11.257Z,6420.00
2022-10-21T11:13:11.182Z,6560.00
2022-10-21T11:14:11.107Z,6540.00
2022-10-21T11:15:11.030Z,6812.00
2022-10-21T11:16:10.953Z,7056.00
2022-10-21T11:17:10.877Z,7512.00
2022-10-21T11:18:24.132Z,7820.00
2022-10-21T11:19:10.725Z,8200.00
2022-10-21T11:20:10.706Z,7996.00
2022-10-21T12:20:23.715Z,2980.00
2022-10-21T12:21:20.445Z,3976.00
2022-10-21T12:22:20.373Z,3664.00
2022-10-21T12:23:20.297Z,8596.00
2022-10-21T12:24:20.223Z,11604.00
2022-10-21T12:25:20.149Z,7268.00
2022-10-21T12:26:20.075Z,21216.00
2022-10-21T12:27:19.999Z,12656.00
2022-10-21T12:31:30.604Z,13444.00
2022-10-21T12:32:30.525Z,7200.00
2022-10-21T12:33:30.552Z,5836.00
2022-10-21T12:34:30.377Z,4668.00
2022-10-21T12:35:30.503Z,5536.00
2022-10-21T12:36:30.228Z,4436.00
2022-10-21T12:37:30.158Z,5036.00
2022-10-21T12:38:30.085Z,4632.00
2022-10-21T12:39:30.010Z,5236.00
2022-10-21T12:40:29.935Z,4736.00
2022-10-21T12:41:29.861Z,6272.00
2022-10-21T12:42:29.787Z,5712.00
2022-10-21T12:43:29.715Z,7204.00
2022-10-21T12:44:29.639Z,6284.00
2022-10-21T12:45:29.568Z,6540.00
2022-10-21T13:04:23.631Z,8660.00
2022-10-21T13:05:23.536Z,15840.00
2022-10-21T13:06:23.466Z,10656.00
2022-10-21T13:07:23.391Z,12784.00
2022-10-21T13:08:23.522Z,7000.00
2022-10-21T13:09:23.289Z,8420.00
2022-10-21T13:10:23.175Z,7632.00
2022-10-21T13:11:23.101Z,7712.00
2022-10-21T13:12:23.041Z,8928.00
2022-10-21T13:13:23.764Z,8444.00
2022-10-21T13:14:22.890Z,7532.00
2022-10-21T13:15:22.861Z,8652.00
2022-10-21T13:16:22.739Z,8424.00
2022-10-21T13:17:22.671Z,6624.00
2022-10-21T13:18:22.630Z,7264.00
2022-10-21T13:19:22.519Z,7304.00
2022-10-21T13:20:22.464Z,7984.00
2022-10-21T13:21:22.374Z,8636.00
2022-10-21T13:22:22.302Z,7256.00
2022-10-21T13:23:22.232Z,9152.00
2022-10-21T13:24:22.156Z,10844.00
2022-10-21T13:25:22.081Z,8508.00
2022-10-21T13:26:22.007Z,10364.00
2022-10-21T13:27:21.961Z,6896.00
2022-10-21T13:28:21.862Z,7260.00
2022-10-21T13:29:21.794Z,6664.00
2022-10-21T13:30:21.716Z,10432.00
2022-10-21T13:31:21.640Z,7440.00
2022-10-21T13:32:21.566Z,6660.00
2022-10-21T13:33:21.493Z,7228.00
2022-10-21T13:34:21.523Z,8680.00
2022-10-21T13:35:21.346Z,7992.00
2022-10-21T13:36:21.293Z,7608.00
2022-10-21T13:37:21.200Z,7592.00
2022-10-21T13:38:21.132Z,7452.00
2022-10-21T13:39:21.052Z,9432.00
2022-10-21T13:40:20.980Z,9308.00
2022-10-21T13:41:20.907Z,10276.00
2022-10-21T13:42:24.144Z,8396.00
2022-10-21T13:43:20.759Z,6948.00
2022-10-21T13:44:20.688Z,6112.00
2022-10-21T13:45:20.611Z,5128.00
2022-10-21T13:46:20.539Z,4112.00
2022-10-21T13:47:20.465Z,4084.00
2022-10-21T13:48:20.393Z,5072.00
2022-10-21T13:49:20.319Z,4648.00
2022-10-21T13:50:20.243Z,3992.00
2022-10-21T13:51:20.172Z,4164.00
2022-10-21T13:52:20.116Z,4288.00
2022-10-21T13:53:20.022Z,3856.00
2022-10-21T13:54:19.948Z,4616.00
2022-10-21T13:55:19.875Z,4512.00
2022-10-21T13:56:19.804Z,3876.00
2022-10-21T13:57:19.728Z,4160.00
2022-10-21T13:58:19.655Z,4860.00
2022-10-21T13:59:19.580Z,3736.00
2022-10-21T14:00:19.607Z,2980.00
2022-10-21T14:01:19.438Z,3092.00
2022-10-21T14:02:19.359Z,1944.00
2022-10-21T14:03:19.333Z,2204.00
2022-10-21T14:04:19.210Z,2000.00
2022-10-21T14:05:19.136Z,1776.00
2022-10-21T14:06:19.061Z,2180.00
2022-10-21T14:07:18.985Z,2640.00
2022-10-21T14:08:18.931Z,1736.00
2022-10-21T14:09:18.884Z,1860.00
2022-10-21T14:10:18.764Z,1760.00
2022-10-21T14:11:18.749Z,1168.00
2022-10-21T14:12:18.612Z,816.00
2022-10-21T14:17:21.709Z,996.00
2022-10-21T14:18:24.457Z,1000.00
2022-10-21T14:19:21.557Z,696.00
2022-10-21T15:50:47.692Z,292.00
2022-10-21T15:51:47.593Z,276.00
2022-10-21T15:52:47.573Z,240.00
2022-10-21T15:53:47.445Z,252.00
2022-10-21T15:54:47.368Z,224.00
2022-10-21T15:55:47.291Z,208.00
2022-10-21T15:56:47.216Z,188.00
2022-10-21T15:57:47.142Z,172.00
2022-10-21T15:58:47.067Z,220.00
2022-10-21T15:59:46.990Z,216.00
2022-10-21T16:00:46.984Z,212.00
2022-10-21T16:01:46.838Z,188.00
2022-10-21T16:36:18.668Z,12.00
2022-10-21T16:37:18.556Z,12.00
2022-10-21T16:39:21.027Z,8.00
2022-10-21T16:40:18.328Z,8.00
2022-10-21T16:41:18.251Z,4.00
2022-10-21T16:42:18.176Z,4.00
2022-10-21T16:43:18.097Z,4.00
2022-10-21T16:44:18.023Z,4.00
2022-10-21T16:45:17.947Z,4.00
2022-10-21T16:46:21.243Z,0.00
2022-10-21T16:47:17.834Z,4.00
2022-10-21T16:48:17.719Z,0.00
2022-10-21T16:49:17.641Z,0.00
2022-10-21T16:50:17.719Z,0.00
2022-10-21T16:51:17.491Z,0.00
2022-10-21T16:52:17.435Z,0.00
2022-10-21T16:53:17.335Z,0.00
2022-10-21T16:54:17.259Z,0.00
2022-10-21T16:55:17.182Z,0.00
2022-10-21T16:56:17.147Z,0.00
2022-10-21T16:57:17.031Z,0.00
2022-10-21T16:58:16.952Z,0.00
2022-10-21T16:59:16.877Z,0.00
2022-10-21T17:00:16.798Z,0.00
2022-10-21T17:01:16.796Z,0.00
2022-10-21T17:02:16.646Z,0.00
2022-10-21T17:03:16.570Z,0.00
2022-10-21T17:04:16.493Z,0.00
2022-10-21T17:05:16.416Z,0.00
2022-10-21T17:06:16.340Z,0.00
2022-10-21T17:07:16.263Z,0.00
2022-10-21T17:08:16.209Z,0.00
2022-10-21T17:09:16.185Z,0.00
2022-10-21T17:10:16.183Z,0.00
2022-10-21T17:11:15.957Z,0.00
2022-10-21T17:12:15.882Z,0.00
2022-10-21T17:13:15.802Z,0.00
2022-10-21T17:14:15.766Z,0.00
2022-10-21T17:15:15.657Z,0.00
2022-10-21T17:16:15.580Z,0.00
2022-10-21T17:17:15.496Z,0.00
2022-10-21T17:18:15.860Z,0.00
2022-10-21T17:19:15.347Z,0.00
2022-10-21T17:20:15.271Z,0.00
2022-10-21T17:21:15.192Z,0.00
2022-10-21T17:22:15.113Z,0.00
2022-10-21T17:23:15.038Z,0.00
2022-10-21T17:24:14.985Z,0.00
2022-10-21T17:25:14.883Z,0.00
2022-10-21T17:26:14.807Z,0.00
2022-10-21T17:27:17.308Z,0.00
2022-10-21T17:28:14.654Z,0.00
2022-10-21T17:29:14.578Z,0.00
2022-10-21T17:30:14.501Z,0.00
2022-10-21T17:31:14.423Z,0.00
2022-10-21T17:32:14.348Z,0.00
2022-10-21T17:33:14.463Z,0.00
2022-10-21T17:34:14.195Z,0.00
2022-10-21T17:35:14.116Z,0.00
2022-10-21T17:36:14.041Z,0.00
2022-10-21T17:37:13.964Z,0.00
2022-10-21T17:38:13.988Z,0.00
2022-10-21T17:39:13.811Z,0.00
2022-10-21T17:40:13.754Z,0.00
2022-10-21T17:41:13.656Z,0.00
2022-10-21T17:42:13.580Z,0.00
2022-10-21T17:43:13.508Z,0.00
2022-10-21T17:44:13.428Z,0.00
2022-10-21T17:45:13.351Z,0.00
2022-10-21T17:46:13.271Z,0.00
2022-10-21T17:47:13.246Z,0.00
2022-10-21T17:48:13.121Z,0.00
2022-10-21T17:49:13.041Z,0.00
2022-10-21T19:03:13.968Z,0.00
2022-10-21T19:52:26.542Z,0.00
2022-10-21T19:53:30.130Z,0.00
2022-10-21T19:54:26.369Z,0.00
2022-10-21T19:55:26.289Z,0.00
2022-10-21T19:56:29.580Z,0.00
2022-10-21T19:57:26.136Z,0.00
2022-10-21T19:58:26.059Z,0.00
2022-10-21T19:59:25.980Z,0.00
2022-10-21T20:00:25.906Z,0.00
2022-10-21T20:01:25.909Z,0.00
2022-10-21T20:02:25.749Z,0.00
2022-10-21T20:03:25.671Z,0.00
2022-10-21T20:04:25.597Z,0.00
2022-10-21T20:05:25.540Z,0.00
2022-10-21T20:06:25.459Z,0.00
2022-10-21T22:17:59.338Z,0.00
2022-10-21T22:18:59.880Z,0.00
2022-10-21T22:19:59.162Z,0.00
2022-10-21T22:20:59.081Z,0.00
2022-10-21T22:21:59.006Z,0.00
2022-10-21T22:22:58.929Z,0.00
2022-10-21T22:23:58.854Z,0.00
2022-10-21T22:24:58.776Z,0.00
2022-10-21T22:25:58.701Z,0.00
2022-10-21T22:26:58.622Z,0.00
2022-10-21T22:27:58.544Z,0.00
2022-10-21T22:28:58.469Z,0.00
2022-10-21T22:29:58.392Z,0.00
2022-10-21T22:30:58.317Z,0.00
2022-10-21T22:31:58.239Z,0.00
2022-10-21T22:32:58.161Z,0.00
2022-10-21T22:33:58.255Z,0.00
2022-10-21T22:34:58.007Z,0.00
2022-10-21T22:35:57.967Z,0.00
2022-10-21T22:36:57.855Z,0.00
2022-10-21T22:37:57.780Z,0.00
2022-10-21T22:38:57.708Z,0.00
2022-10-21T22:39:57.625Z,0.00
2022-10-21T22:40:57.549Z,0.00
2022-10-21T22:41:57.471Z,0.00
2022-10-21T22:42:57.393Z,0.00
2022-10-21T22:43:57.325Z,0.00
2022-10-21T22:44:57.240Z,0.00
2022-10-21T22:46:05.002Z,0.00
2022-10-21T22:46:57.087Z,0.00
2022-10-21T22:47:57.011Z,0.00
2022-10-21T22:48:57.131Z,0.00
2022-10-21T22:49:56.878Z,0.00
2022-10-21T22:50:56.780Z,0.00
2022-10-21T22:51:56.703Z,0.00
2022-10-21T22:52:56.627Z,0.00
2022-10-21T22:53:56.944Z,0.00
2022-10-21T22:54:56.472Z,0.00
2022-10-21T22:55:56.397Z,0.00
2022-10-21T22:56:56.319Z,0.00
2022-10-21T22:57:56.243Z,0.00
2022-10-21T22:58:56.166Z,0.00
2022-10-21T22:59:56.092Z,0.00
2022-10-21T23:01:55.937Z,0.00
2022-10-21T23:02:55.860Z,0.00
2022-10-21T23:03:55.783Z,0.00
2022-10-21T23:04:55.704Z,0.00
2022-10-21T23:05:55.651Z,0.00
2022-10-21T23:06:55.555Z,0.00
2022-10-21T23:07:55.482Z,0.00
2022-10-21T23:08:55.455Z,0.00
2022-10-21T23:09:55.400Z,0.00
2022-10-21T23:10:55.496Z,0.00
2022-10-21T23:11:55.171Z,0.00
2022-10-21T23:12:55.092Z,0.00
2022-10-21T23:14:02.767Z,0.00
2022-10-21T23:14:55.039Z,0.00
2022-10-21T23:15:54.862Z,0.00
2022-10-21T23:16:54.786Z,0.00
2022-10-21T23:17:54.711Z,0.00
2022-10-21T23:18:54.644Z,0.00
2022-10-21T23:19:54.556Z,0.00
2022-10-21T23:20:54.477Z,0.00
2022-10-21T23:21:54.419Z,0.00
2022-10-21T23:22:54.324Z,0.00
2022-10-21T23:23:54.248Z,0.00
2022-10-21T23:24:54.171Z,0.00
2022-10-21T23:25:54.101Z,0.00
2022-10-21T23:26:57.711Z,0.00
2022-10-21T23:27:53.947Z,0.00
2022-10-21T23:28:53.863Z,0.00
2022-10-21T23:29:53.790Z,0.00
2022-10-21T23:30:53.711Z,0.00
2022-10-21T23:31:53.637Z,0.00
2022-10-21T23:32:53.556Z,0.00
2022-10-21T23:33:53.480Z,0.00
2022-10-21T23:34:53.401Z,0.00
2022-10-21T23:35:53.325Z,0.00
2022-10-21T23:36:53.251Z,0.00
2022-10-21T23:37:53.193Z,0.00
2022-10-21T23:38:53.096Z,0.00
2022-10-21T23:39:53.019Z,0.00
2022-10-21T23:40:52.941Z,0.00
2022-10-21T23:41:52.864Z,0.00
2022-10-21T23:42:52.790Z,0.00
2022-10-21T23:43:52.713Z,0.00
2022-10-21T23:44:52.635Z,0.00
2022-10-21T23:45:52.561Z,0.00
2022-10-21T23:46:52.480Z,0.00
2022-10-21T23:47:52.405Z,0.00
2022-10-21T23:48:52.327Z,0.00
2022-10-21T23:49:52.251Z,0.00
2022-10-21T23:51:34.656Z,0.00
2022-10-21T23:52:34.579Z,0.00
2022-10-21T23:53:34.521Z,0.00
2022-10-21T23:54:34.423Z,0.00
2022-10-21T23:55:34.354Z,0.00
2022-10-21T23:56:34.877Z,0.00
